sensor_id;sensor_type;location;lat;lon;timestamp;P1;durP1;ratioP1;P2;durP2;ratioP2
41661;SDS011;27351;45.992;12.666;2022-08-01T00:01:16;7.97;;;5.80;;
41661;SDS011;27351;45.992;12.666;2022-08-01T00:03:41;7.33;;;5.50;;
41661;SDS011;27351;45.992;12.666;2022-08-01T00:06:07;7.47;;;6.03;;
41661;SDS011;27351;45.992;12.666;2022-08-01T00:08:32;8.23;;;5.60;;
41661;SDS011;27351;45.992;12.666;2022-08-01T00:10:58;9.83;;;5.80;;
41661;SDS011;27351;45.992;12.666;2022-08-01T00:13:24;7.90;;;5.50;;
41661;SDS011;27351;45.992;12.666;2022-08-01T00:15:49;8.17;;;5.73;;
41661;SDS011;27351;45.992;12.666;2022-08-01T00:18:15;7.37;;;5.20;;
41661;SDS011;27351;45.992;12.666;2022-08-01T00:20:40;8.15;;;5.00;;
41661;SDS011;27351;45.992;12.666;2022-08-01T00:23:06;7.50;;;4.87;;
41661;SDS011;27351;45.992;12.666;2022-08-01T00:25:31;8.13;;;5.40;;
41661;SDS011;27351;45.992;12.666;2022-08-01T00:27:57;7.05;;;4.95;;
41661;SDS011;27351;45.992;12.666;2022-08-01T00:30:23;6.23;;;4.50;;
41661;SDS011;27351;45.992;12.666;2022-08-01T00:32:48;5.77;;;3.93;;
41661;SDS011;27351;45.992;12.666;2022-08-01T00:35:14;7.15;;;4.25;;
41661;SDS011;27351;45.992;12.666;2022-08-01T00:37:41;7.22;;;4.00;;
41661;SDS011;27351;45.992;12.666;2022-08-01T00:40:20;6.85;;;4.18;;
41661;SDS011;27351;45.992;12.666;2022-08-01T00:42:45;6.30;;;3.92;;
41661;SDS011;27351;45.992;12.666;2022-08-01T00:45:11;7.30;;;4.90;;
41661;SDS011;27351;45.992;12.666;2022-08-01T00:47:37;6.45;;;4.28;;
41661;SDS011;27351;45.992;12.666;2022-08-01T00:50:03;6.30;;;4.38;;
41661;SDS011;27351;45.992;12.666;2022-08-01T00:52:29;5.90;;;3.90;;
41661;SDS011;27351;45.992;12.666;2022-08-01T00:54:55;6.88;;;4.30;;
41661;SDS011;27351;45.992;12.666;2022-08-01T00:57:21;5.93;;;4.07;;
41661;SDS011;27351;45.992;12.666;2022-08-01T00:59:47;7.45;;;4.63;;
41661;SDS011;27351;45.992;12.666;2022-08-01T01:02:13;7.47;;;4.30;;
41661;SDS011;27351;45.992;12.666;2022-08-01T01:04:38;5.90;;;4.07;;
41661;SDS011;27351;45.992;12.666;2022-08-01T01:14:34;5.43;;;3.85;;
41661;SDS011;27351;45.992;12.666;2022-08-01T01:17:03;6.25;;;4.05;;
41661;SDS011;27351;45.992;12.666;2022-08-01T01:19:32;5.80;;;3.88;;
41661;SDS011;27351;45.992;12.666;2022-08-01T01:22:14;7.57;;;3.60;;
41661;SDS011;27351;45.992;12.666;2022-08-01T01:27:24;6.03;;;3.63;;
41661;SDS011;27351;45.992;12.666;2022-08-01T01:29:56;5.50;;;3.67;;
41661;SDS011;27351;45.992;12.666;2022-08-01T01:32:41;7.03;;;3.60;;
41661;SDS011;27351;45.992;12.666;2022-08-01T01:41:07;4.97;;;3.30;;
41661;SDS011;27351;45.992;12.666;2022-08-01T01:43:33;5.47;;;3.33;;
41661;SDS011;27351;45.992;12.666;2022-08-01T01:46:00;5.70;;;3.45;;
41661;SDS011;27351;45.992;12.666;2022-08-01T01:48:27;5.20;;;2.90;;
41661;SDS011;27351;45.992;12.666;2022-08-01T01:50:54;5.07;;;3.03;;
41661;SDS011;27351;45.992;12.666;2022-08-01T01:53:21;5.03;;;3.22;;
41661;SDS011;27351;45.992;12.666;2022-08-01T01:55:50;4.75;;;3.17;;
41661;SDS011;27351;45.992;12.666;2022-08-01T01:58:16;5.32;;;3.15;;
41661;SDS011;27351;45.992;12.666;2022-08-01T02:00:44;8.23;;;3.00;;
41661;SDS011;27351;45.992;12.666;2022-08-01T02:03:11;4.18;;;2.80;;
41661;SDS011;27351;45.992;12.666;2022-08-01T02:05:37;5.45;;;3.05;;
41661;SDS011;27351;45.992;12.666;2022-08-01T02:08:03;5.63;;;3.05;;
41661;SDS011;27351;45.992;12.666;2022-08-01T02:10:30;5.35;;;2.90;;
41661;SDS011;27351;45.992;12.666;2022-08-01T02:12:57;4.93;;;3.00;;
41661;SDS011;27351;45.992;12.666;2022-08-01T02:15:23;5.00;;;3.10;;
41661;SDS011;27351;45.992;12.666;2022-08-01T02:17:49;4.97;;;3.22;;
41661;SDS011;27351;45.992;12.666;2022-08-01T02:20:15;4.70;;;3.40;;
41661;SDS011;27351;45.992;12.666;2022-08-01T02:22:49;6.28;;;3.40;;
41661;SDS011;27351;45.992;12.666;2022-08-01T02:25:19;6.00;;;3.28;;
41661;SDS011;27351;45.992;12.666;2022-08-01T02:27:49;6.32;;;3.40;;
41661;SDS011;27351;45.992;12.666;2022-08-01T02:30:15;4.85;;;3.30;;
41661;SDS011;27351;45.992;12.666;2022-08-01T02:32:43;7.00;;;3.87;;
41661;SDS011;27351;45.992;12.666;2022-08-01T02:35:11;6.63;;;3.67;;
41661;SDS011;27351;45.992;12.666;2022-08-01T02:37:38;5.70;;;3.53;;
41661;SDS011;27351;45.992;12.666;2022-08-01T02:40:04;5.25;;;3.25;;
41661;SDS011;27351;45.992;12.666;2022-08-01T02:42:31;5.43;;;3.10;;
41661;SDS011;27351;45.992;12.666;2022-08-01T02:44:57;5.22;;;3.22;;
41661;SDS011;27351;45.992;12.666;2022-08-01T02:47:25;4.78;;;3.03;;
41661;SDS011;27351;45.992;12.666;2022-08-01T02:49:51;5.85;;;3.00;;
41661;SDS011;27351;45.992;12.666;2022-08-01T02:52:18;4.57;;;3.10;;
41661;SDS011;27351;45.992;12.666;2022-08-01T02:54:45;4.95;;;3.10;;
41661;SDS011;27351;45.992;12.666;2022-08-01T02:57:12;7.28;;;3.17;;
41661;SDS011;27351;45.992;12.666;2022-08-01T02:59:38;5.47;;;3.30;;
41661;SDS011;27351;45.992;12.666;2022-08-01T03:02:04;5.25;;;3.30;;
41661;SDS011;27351;45.992;12.666;2022-08-01T03:04:32;4.63;;;2.85;;
41661;SDS011;27351;45.992;12.666;2022-08-01T03:06:58;5.85;;;3.40;;
41661;SDS011;27351;45.992;12.666;2022-08-01T03:09:25;5.25;;;3.10;;
41661;SDS011;27351;45.992;12.666;2022-08-01T03:11:51;6.20;;;3.08;;
41661;SDS011;27351;45.992;12.666;2022-08-01T03:14:17;4.95;;;2.83;;
41661;SDS011;27351;45.992;12.666;2022-08-01T03:16:45;4.97;;;2.73;;
41661;SDS011;27351;45.992;12.666;2022-08-01T03:19:11;5.53;;;2.80;;
41661;SDS011;27351;45.992;12.666;2022-08-01T03:21:38;4.38;;;2.67;;
41661;SDS011;27351;45.992;12.666;2022-08-01T03:24:04;4.68;;;3.10;;
41661;SDS011;27351;45.992;12.666;2022-08-01T03:26:31;5.35;;;3.20;;
41661;SDS011;27351;45.992;12.666;2022-08-01T03:28:59;4.85;;;3.33;;
41661;SDS011;27351;45.992;12.666;2022-08-01T03:31:27;6.78;;;4.00;;
41661;SDS011;27351;45.992;12.666;2022-08-01T03:33:53;6.10;;;3.90;;
41661;SDS011;27351;45.992;12.666;2022-08-01T03:36:21;7.70;;;4.40;;
41661;SDS011;27351;45.992;12.666;2022-08-01T03:38:48;6.80;;;4.50;;
41661;SDS011;27351;45.992;12.666;2022-08-01T03:41:17;7.45;;;4.07;;
41661;SDS011;27351;45.992;12.666;2022-08-01T03:43:47;6.55;;;3.95;;
41661;SDS011;27351;45.992;12.666;2022-08-01T03:46:17;7.72;;;4.45;;
41661;SDS011;27351;45.992;12.666;2022-08-01T03:48:47;6.45;;;3.97;;
41661;SDS011;27351;45.992;12.666;2022-08-01T03:51:13;5.57;;;3.93;;
41661;SDS011;27351;45.992;12.666;2022-08-01T03:53:40;6.55;;;3.92;;
41661;SDS011;27351;45.992;12.666;2022-08-01T03:56:06;6.00;;;4.00;;
41661;SDS011;27351;45.992;12.666;2022-08-01T03:58:34;6.63;;;4.10;;
41661;SDS011;27351;45.992;12.666;2022-08-01T04:01:00;5.63;;;3.13;;
41661;SDS011;27351;45.992;12.666;2022-08-01T04:03:26;4.93;;;2.90;;
41661;SDS011;27351;45.992;12.666;2022-08-01T04:05:52;5.13;;;2.90;;
41661;SDS011;27351;45.992;12.666;2022-08-01T04:08:17;5.33;;;3.20;;
41661;SDS011;27351;45.992;12.666;2022-08-01T04:10:43;7.13;;;4.00;;
41661;SDS011;27351;45.992;12.666;2022-08-01T04:13:08;6.10;;;3.60;;
41661;SDS011;27351;45.992;12.666;2022-08-01T04:15:34;5.33;;;3.50;;
41661;SDS011;27351;45.992;12.666;2022-08-01T04:18:00;5.87;;;3.80;;
41661;SDS011;27351;45.992;12.666;2022-08-01T04:20:25;6.30;;;3.47;;
41661;SDS011;27351;45.992;12.666;2022-08-01T04:22:51;7.27;;;3.40;;
41661;SDS011;27351;45.992;12.666;2022-08-01T04:25:21;7.00;;;3.80;;
41661;SDS011;27351;45.992;12.666;2022-08-01T04:27:49;5.40;;;3.35;;
41661;SDS011;27351;45.992;12.666;2022-08-01T04:30:16;6.28;;;3.40;;
41661;SDS011;27351;45.992;12.666;2022-08-01T04:32:43;5.75;;;3.50;;
41661;SDS011;27351;45.992;12.666;2022-08-01T04:35:11;8.30;;;3.20;;
41661;SDS011;27351;45.992;12.666;2022-08-01T04:37:37;5.63;;;3.55;;
41661;SDS011;27351;45.992;12.666;2022-08-01T04:40:06;5.20;;;3.72;;
41661;SDS011;27351;45.992;12.666;2022-08-01T04:42:34;5.68;;;3.50;;
41661;SDS011;27351;45.992;12.666;2022-08-01T04:45:00;7.15;;;3.22;;
41661;SDS011;27351;45.992;12.666;2022-08-01T04:47:26;7.97;;;3.47;;
41661;SDS011;27351;45.992;12.666;2022-08-01T04:49:52;5.53;;;3.50;;
41661;SDS011;27351;45.992;12.666;2022-08-01T04:52:19;7.35;;;3.50;;
41661;SDS011;27351;45.992;12.666;2022-08-01T04:54:45;6.97;;;3.28;;
41661;SDS011;27351;45.992;12.666;2022-08-01T04:57:11;6.95;;;3.40;;
41661;SDS011;27351;45.992;12.666;2022-08-01T04:59:37;6.80;;;3.38;;
41661;SDS011;27351;45.992;12.666;2022-08-01T05:04:36;5.72;;;3.20;;
41661;SDS011;27351;45.992;12.666;2022-08-01T05:07:02;4.07;;;2.95;;
41661;SDS011;27351;45.992;12.666;2022-08-01T05:09:28;5.45;;;3.20;;
41661;SDS011;27351;45.992;12.666;2022-08-01T05:11:53;6.07;;;2.95;;
41661;SDS011;27351;45.992;12.666;2022-08-01T05:14:19;4.90;;;2.83;;
41661;SDS011;27351;45.992;12.666;2022-08-01T05:16:44;6.47;;;3.17;;
41661;SDS011;27351;45.992;12.666;2022-08-01T05:19:11;4.90;;;2.93;;
41661;SDS011;27351;45.992;12.666;2022-08-01T05:21:36;4.93;;;3.17;;
41661;SDS011;27351;45.992;12.666;2022-08-01T05:24:03;6.40;;;3.10;;
41661;SDS011;27351;45.992;12.666;2022-08-01T05:26:29;4.55;;;3.00;;
41661;SDS011;27351;45.992;12.666;2022-08-01T05:28:54;4.77;;;3.07;;
41661;SDS011;27351;45.992;12.666;2022-08-01T05:31:20;5.57;;;2.90;;
41661;SDS011;27351;45.992;12.666;2022-08-01T05:33:45;6.37;;;3.20;;
41661;SDS011;27351;45.992;12.666;2022-08-01T05:36:11;6.57;;;3.30;;
41661;SDS011;27351;45.992;12.666;2022-08-01T05:38:36;5.85;;;3.00;;
41661;SDS011;27351;45.992;12.666;2022-08-01T05:41:02;6.25;;;3.00;;
41661;SDS011;27351;45.992;12.666;2022-08-01T05:43:27;6.83;;;3.00;;
41661;SDS011;27351;45.992;12.666;2022-08-01T05:45:53;4.70;;;2.70;;
41661;SDS011;27351;45.992;12.666;2022-08-01T05:48:19;6.03;;;2.72;;
41661;SDS011;27351;45.992;12.666;2022-08-01T05:50:44;6.03;;;2.40;;
41661;SDS011;27351;45.992;12.666;2022-08-01T05:53:10;8.50;;;2.90;;
41661;SDS011;27351;45.992;12.666;2022-08-01T05:55:35;4.63;;;2.50;;
41661;SDS011;27351;45.992;12.666;2022-08-01T05:58:02;4.33;;;2.60;;
41661;SDS011;27351;45.992;12.666;2022-08-01T06:00:27;5.88;;;2.60;;
41661;SDS011;27351;45.992;12.666;2022-08-01T06:02:53;4.75;;;2.40;;
41661;SDS011;27351;45.992;12.666;2022-08-01T06:05:19;4.17;;;2.40;;
41661;SDS011;27351;45.992;12.666;2022-08-01T06:07:44;4.50;;;2.73;;
41661;SDS011;27351;45.992;12.666;2022-08-01T06:10:10;5.37;;;2.60;;
41661;SDS011;27351;45.992;12.666;2022-08-01T06:12:35;3.77;;;2.53;;
41661;SDS011;27351;45.992;12.666;2022-08-01T06:15:02;4.47;;;2.33;;
41661;SDS011;27351;45.992;12.666;2022-08-01T06:17:27;4.05;;;2.65;;
41661;SDS011;27351;45.992;12.666;2022-08-01T06:19:53;5.27;;;2.50;;
41661;SDS011;27351;45.992;12.666;2022-08-01T06:22:18;4.80;;;2.58;;
41661;SDS011;27351;45.992;12.666;2022-08-01T06:24:44;4.03;;;2.30;;
41661;SDS011;27351;45.992;12.666;2022-08-01T06:27:10;5.10;;;2.57;;
41661;SDS011;27351;45.992;12.666;2022-08-01T06:29:35;5.72;;;2.60;;
41661;SDS011;27351;45.992;12.666;2022-08-01T06:32:01;4.50;;;2.45;;
41661;SDS011;27351;45.992;12.666;2022-08-01T06:34:27;3.60;;;2.30;;
41661;SDS011;27351;45.992;12.666;2022-08-01T06:36:52;4.90;;;2.30;;
41661;SDS011;27351;45.992;12.666;2022-08-01T06:39:18;5.50;;;2.45;;
41661;SDS011;27351;45.992;12.666;2022-08-01T06:41:43;4.33;;;2.60;;
41661;SDS011;27351;45.992;12.666;2022-08-01T06:44:11;6.13;;;2.20;;
41661;SDS011;27351;45.992;12.666;2022-08-01T06:46:37;5.85;;;2.63;;
41661;SDS011;27351;45.992;12.666;2022-08-01T06:49:03;3.42;;;2.28;;
41661;SDS011;27351;45.992;12.666;2022-08-01T06:51:29;3.95;;;2.30;;
41661;SDS011;27351;45.992;12.666;2022-08-01T06:53:54;5.47;;;2.70;;
41661;SDS011;27351;45.992;12.666;2022-08-01T06:56:20;4.70;;;2.20;;
41661;SDS011;27351;45.992;12.666;2022-08-01T06:58:46;4.20;;;2.35;;
41661;SDS011;27351;45.992;12.666;2022-08-01T07:01:11;5.50;;;2.07;;
41661;SDS011;27351;45.992;12.666;2022-08-01T07:03:37;5.13;;;2.20;;
41661;SDS011;27351;45.992;12.666;2022-08-01T07:06:03;3.35;;;2.10;;
41661;SDS011;27351;45.992;12.666;2022-08-01T07:08:28;4.78;;;2.30;;
41661;SDS011;27351;45.992;12.666;2022-08-01T07:10:54;3.70;;;2.10;;
41661;SDS011;27351;45.992;12.666;2022-08-01T07:13:21;4.07;;;2.20;;
41661;SDS011;27351;45.992;12.666;2022-08-01T07:15:50;5.97;;;2.50;;
41661;SDS011;27351;45.992;12.666;2022-08-01T07:18:16;4.93;;;2.40;;
41661;SDS011;27351;45.992;12.666;2022-08-01T07:20:42;4.70;;;2.50;;
41661;SDS011;27351;45.992;12.666;2022-08-01T07:23:08;4.35;;;2.80;;
41661;SDS011;27351;45.992;12.666;2022-08-01T07:25:34;4.80;;;2.80;;
41661;SDS011;27351;45.992;12.666;2022-08-01T07:27:59;6.05;;;2.85;;
41661;SDS011;27351;45.992;12.666;2022-08-01T07:30:25;4.97;;;2.33;;
41661;SDS011;27351;45.992;12.666;2022-08-01T07:32:51;6.30;;;2.90;;
41661;SDS011;27351;45.992;12.666;2022-08-01T07:35:17;4.70;;;2.80;;
41661;SDS011;27351;45.992;12.666;2022-08-01T07:37:42;5.07;;;2.60;;
41661;SDS011;27351;45.992;12.666;2022-08-01T07:40:08;4.07;;;2.63;;
41661;SDS011;27351;45.992;12.666;2022-08-01T07:42:34;4.15;;;2.50;;
41661;SDS011;27351;45.992;12.666;2022-08-01T07:44:59;3.85;;;2.42;;
41661;SDS011;27351;45.992;12.666;2022-08-01T07:47:25;6.27;;;2.40;;
41661;SDS011;27351;45.992;12.666;2022-08-01T07:49:51;4.88;;;2.60;;
41661;SDS011;27351;45.992;12.666;2022-08-01T07:52:16;7.28;;;2.67;;
41661;SDS011;27351;45.992;12.666;2022-08-01T07:54:42;8.02;;;2.90;;
41661;SDS011;27351;45.992;12.666;2022-08-01T07:57:08;4.40;;;2.17;;
41661;SDS011;27351;45.992;12.666;2022-08-01T07:59:33;5.15;;;2.08;;
41661;SDS011;27351;45.992;12.666;2022-08-01T08:01:59;2.75;;;1.65;;
41661;SDS011;27351;45.992;12.666;2022-08-01T08:04:25;4.67;;;1.87;;
41661;SDS011;27351;45.992;12.666;2022-08-01T08:06:51;5.25;;;2.10;;
41661;SDS011;27351;45.992;12.666;2022-08-01T08:09:18;5.25;;;2.08;;
41661;SDS011;27351;45.992;12.666;2022-08-01T08:11:45;4.50;;;2.10;;
41661;SDS011;27351;45.992;12.666;2022-08-01T08:14:10;2.92;;;1.80;;
41661;SDS011;27351;45.992;12.666;2022-08-01T08:16:36;3.72;;;1.70;;
41661;SDS011;27351;45.992;12.666;2022-08-01T08:19:02;4.65;;;1.35;;
41661;SDS011;27351;45.992;12.666;2022-08-01T08:21:28;4.17;;;1.70;;
41661;SDS011;27351;45.992;12.666;2022-08-01T08:23:53;3.10;;;1.95;;
41661;SDS011;27351;45.992;12.666;2022-08-01T08:26:37;2.90;;;1.77;;
41661;SDS011;27351;45.992;12.666;2022-08-01T08:29:03;2.03;;;1.60;;
41661;SDS011;27351;45.992;12.666;2022-08-01T08:31:29;2.90;;;2.00;;
41661;SDS011;27351;45.992;12.666;2022-08-01T08:33:55;4.37;;;1.73;;
41661;SDS011;27351;45.992;12.666;2022-08-01T08:36:20;5.17;;;1.63;;
41661;SDS011;27351;45.992;12.666;2022-08-01T08:38:46;3.40;;;1.75;;
41661;SDS011;27351;45.992;12.666;2022-08-01T08:41:11;3.57;;;1.70;;
41661;SDS011;27351;45.992;12.666;2022-08-01T08:43:38;2.97;;;1.73;;
41661;SDS011;27351;45.992;12.666;2022-08-01T08:46:04;3.33;;;1.80;;
41661;SDS011;27351;45.992;12.666;2022-08-01T08:48:30;5.78;;;1.88;;
41661;SDS011;27351;45.992;12.666;2022-08-01T08:50:56;3.75;;;1.80;;
41661;SDS011;27351;45.992;12.666;2022-08-01T08:53:23;3.20;;;1.80;;
41661;SDS011;27351;45.992;12.666;2022-08-01T08:55:49;3.92;;;2.10;;
41661;SDS011;27351;45.992;12.666;2022-08-01T08:58:15;3.03;;;1.52;;
41661;SDS011;27351;45.992;12.666;2022-08-01T09:00:43;3.33;;;1.83;;
41661;SDS011;27351;45.992;12.666;2022-08-01T09:03:08;3.70;;;1.77;;
41661;SDS011;27351;45.992;12.666;2022-08-01T09:05:34;3.20;;;1.70;;
41661;SDS011;27351;45.992;12.666;2022-08-01T09:07:59;4.43;;;1.80;;
41661;SDS011;27351;45.992;12.666;2022-08-01T09:10:25;3.35;;;1.80;;
41661;SDS011;27351;45.992;12.666;2022-08-01T09:13:07;2.83;;;1.80;;
41661;SDS011;27351;45.992;12.666;2022-08-01T09:15:46;3.40;;;1.80;;
41661;SDS011;27351;45.992;12.666;2022-08-01T09:23:38;3.97;;;1.75;;
41661;SDS011;27351;45.992;12.666;2022-08-01T09:26:47;4.78;;;1.92;;
41661;SDS011;27351;45.992;12.666;2022-08-01T09:28:54;3.75;;;1.73;;
41661;SDS011;27351;45.992;12.666;2022-08-01T09:31:19;2.58;;;1.80;;
41661;SDS011;27351;45.992;12.666;2022-08-01T09:36:13;2.42;;;1.60;;
41661;SDS011;27351;45.992;12.666;2022-08-01T09:38:39;5.93;;;1.63;;
41661;SDS011;27351;45.992;12.666;2022-08-01T09:41:05;6.35;;;2.00;;
41661;SDS011;27351;45.992;12.666;2022-08-01T09:43:33;4.57;;;1.75;;
41661;SDS011;27351;45.992;12.666;2022-08-01T09:45:59;4.60;;;1.90;;
41661;SDS011;27351;45.992;12.666;2022-08-01T09:48:25;5.18;;;1.67;;
41661;SDS011;27351;45.992;12.666;2022-08-01T09:50:52;3.58;;;1.63;;
41661;SDS011;27351;45.992;12.666;2022-08-01T09:53:19;3.73;;;1.80;;
41661;SDS011;27351;45.992;12.666;2022-08-01T09:55:44;5.75;;;1.95;;
41661;SDS011;27351;45.992;12.666;2022-08-01T09:58:10;2.92;;;1.70;;
41661;SDS011;27351;45.992;12.666;2022-08-01T10:00:37;4.35;;;1.90;;
41661;SDS011;27351;45.992;12.666;2022-08-01T10:03:20;4.75;;;1.98;;
41661;SDS011;27351;45.992;12.666;2022-08-01T10:05:46;4.15;;;2.00;;
41661;SDS011;27351;45.992;12.666;2022-08-01T10:08:12;4.00;;;2.10;;
41661;SDS011;27351;45.992;12.666;2022-08-01T10:10:38;3.13;;;1.80;;
41661;SDS011;27351;45.992;12.666;2022-08-01T10:13:04;4.38;;;1.60;;
41661;SDS011;27351;45.992;12.666;2022-08-01T10:15:30;3.45;;;1.70;;
41661;SDS011;27351;45.992;12.666;2022-08-01T10:17:58;3.92;;;1.70;;
41661;SDS011;27351;45.992;12.666;2022-08-01T10:20:26;3.70;;;1.73;;
41661;SDS011;27351;45.992;12.666;2022-08-01T10:22:53;4.97;;;1.80;;
41661;SDS011;27351;45.992;12.666;2022-08-01T10:25:20;3.38;;;1.70;;
41661;SDS011;27351;45.992;12.666;2022-08-01T10:27:47;3.33;;;1.80;;
41661;SDS011;27351;45.992;12.666;2022-08-01T10:30:14;4.10;;;1.67;;
41661;SDS011;27351;45.992;12.666;2022-08-01T10:32:41;2.88;;;1.90;;
41661;SDS011;27351;45.992;12.666;2022-08-01T10:35:09;2.80;;;1.70;;
41661;SDS011;27351;45.992;12.666;2022-08-01T10:37:41;3.85;;;2.10;;
41661;SDS011;27351;45.992;12.666;2022-08-01T10:40:07;4.25;;;2.20;;
41661;SDS011;27351;45.992;12.666;2022-08-01T10:42:33;2.70;;;2.10;;
41661;SDS011;27351;45.992;12.666;2022-08-01T10:44:58;4.10;;;1.70;;
41661;SDS011;27351;45.992;12.666;2022-08-01T10:47:25;3.47;;;1.90;;
41661;SDS011;27351;45.992;12.666;2022-08-01T10:49:58;3.53;;;2.00;;
41661;SDS011;27351;45.992;12.666;2022-08-01T10:52:26;4.20;;;1.90;;
41661;SDS011;27351;45.992;12.666;2022-08-01T10:55:05;4.43;;;2.10;;
41661;SDS011;27351;45.992;12.666;2022-08-01T10:57:44;2.67;;;1.80;;
41661;SDS011;27351;45.992;12.666;2022-08-01T11:00:15;3.53;;;1.90;;
41661;SDS011;27351;45.992;12.666;2022-08-01T11:02:41;3.67;;;2.00;;
41661;SDS011;27351;45.992;12.666;2022-08-01T11:05:21;3.95;;;2.00;;
41661;SDS011;27351;45.992;12.666;2022-08-01T11:07:48;3.50;;;2.10;;
41661;SDS011;27351;45.992;12.666;2022-08-01T11:12:52;4.57;;;2.13;;
41661;SDS011;27351;45.992;12.666;2022-08-01T11:15:19;4.30;;;2.00;;
41661;SDS011;27351;45.992;12.666;2022-08-01T11:17:50;3.80;;;2.00;;
41661;SDS011;27351;45.992;12.666;2022-08-01T11:25:22;3.13;;;2.00;;
41661;SDS011;27351;45.992;12.666;2022-08-01T11:27:48;3.75;;;1.90;;
41661;SDS011;27351;45.992;12.666;2022-08-01T11:32:46;4.47;;;2.20;;
41661;SDS011;27351;45.992;12.666;2022-08-01T11:35:12;5.22;;;2.20;;
41661;SDS011;27351;45.992;12.666;2022-08-01T11:37:38;4.68;;;1.83;;
41661;SDS011;27351;45.992;12.666;2022-08-01T11:40:20;3.10;;;1.90;;
41661;SDS011;27351;45.992;12.666;2022-08-01T11:42:51;5.20;;;2.08;;
41661;SDS011;27351;45.992;12.666;2022-08-01T11:45:47;5.20;;;1.80;;
41661;SDS011;27351;45.992;12.666;2022-08-01T11:48:20;6.47;;;2.00;;
41661;SDS011;27351;45.992;12.666;2022-08-01T11:50:46;5.72;;;2.30;;
41661;SDS011;27351;45.992;12.666;2022-08-01T11:53:12;3.75;;;2.10;;
41661;SDS011;27351;45.992;12.666;2022-08-01T11:55:47;5.43;;;1.90;;
41661;SDS011;27351;45.992;12.666;2022-08-01T11:58:16;3.75;;;1.98;;
41661;SDS011;27351;45.992;12.666;2022-08-01T12:00:42;3.08;;;1.55;;
41661;SDS011;27351;45.992;12.666;2022-08-01T12:03:15;5.22;;;1.80;;
41661;SDS011;27351;45.992;12.666;2022-08-01T12:05:43;3.77;;;1.83;;
41661;SDS011;27351;45.992;12.666;2022-08-01T12:08:09;2.95;;;1.73;;
41661;SDS011;27351;45.992;12.666;2022-08-01T12:10:34;2.70;;;1.67;;
41661;SDS011;27351;45.992;12.666;2022-08-01T12:13:05;4.38;;;1.70;;
41661;SDS011;27351;45.992;12.666;2022-08-01T12:15:32;5.07;;;1.67;;
41661;SDS011;27351;45.992;12.666;2022-08-01T12:17:59;31.08;;;3.50;;
41661;SDS011;27351;45.992;12.666;2022-08-01T12:20:28;3.50;;;1.67;;
41661;SDS011;27351;45.992;12.666;2022-08-01T12:22:55;2.88;;;1.60;;
41661;SDS011;27351;45.992;12.666;2022-08-01T12:25:20;5.93;;;1.92;;
41661;SDS011;27351;45.992;12.666;2022-08-01T12:27:47;3.90;;;1.80;;
41661;SDS011;27351;45.992;12.666;2022-08-01T12:30:16;3.93;;;1.80;;
41661;SDS011;27351;45.992;12.666;2022-08-01T12:32:43;3.42;;;1.70;;
41661;SDS011;27351;45.992;12.666;2022-08-01T12:35:20;2.75;;;1.40;;
41661;SDS011;27351;45.992;12.666;2022-08-01T12:37:49;2.88;;;1.30;;
41661;SDS011;27351;45.992;12.666;2022-08-01T12:40:16;3.97;;;1.47;;
41661;SDS011;27351;45.992;12.666;2022-08-01T12:42:43;2.90;;;1.50;;
41661;SDS011;27351;45.992;12.666;2022-08-01T12:45:09;3.40;;;1.50;;
41661;SDS011;27351;45.992;12.666;2022-08-01T12:47:36;3.00;;;1.45;;
41661;SDS011;27351;45.992;12.666;2022-08-01T12:50:06;3.42;;;1.50;;
41661;SDS011;27351;45.992;12.666;2022-08-01T12:52:33;3.00;;;1.52;;
41661;SDS011;27351;45.992;12.666;2022-08-01T12:54:59;2.13;;;1.33;;
41661;SDS011;27351;45.992;12.666;2022-08-01T12:57:25;2.92;;;1.23;;
41661;SDS011;27351;45.992;12.666;2022-08-01T13:00:04;3.57;;;1.60;;
41661;SDS011;27351;45.992;12.666;2022-08-01T13:02:34;3.15;;;1.50;;
41661;SDS011;27351;45.992;12.666;2022-08-01T13:05:00;3.20;;;1.60;;
41661;SDS011;27351;45.992;12.666;2022-08-01T13:10:04;1.92;;;1.40;;
41661;SDS011;27351;45.992;12.666;2022-08-01T13:12:30;6.88;;;1.60;;
41661;SDS011;27351;45.992;12.666;2022-08-01T13:14:55;4.07;;;1.50;;
41661;SDS011;27351;45.992;12.666;2022-08-01T13:17:33;4.47;;;1.43;;
41661;SDS011;27351;45.992;12.666;2022-08-01T13:20:04;2.92;;;1.48;;
41661;SDS011;27351;45.992;12.666;2022-08-01T13:22:33;3.90;;;1.52;;
41661;SDS011;27351;45.992;12.666;2022-08-01T13:25:15;2.88;;;1.52;;
41661;SDS011;27351;45.992;12.666;2022-08-01T13:27:42;3.30;;;1.40;;
41661;SDS011;27351;45.992;12.666;2022-08-01T13:30:14;3.00;;;1.60;;
41661;SDS011;27351;45.992;12.666;2022-08-01T13:32:40;2.92;;;1.52;;
41661;SDS011;27351;45.992;12.666;2022-08-01T13:35:09;2.95;;;1.40;;
41661;SDS011;27351;45.992;12.666;2022-08-01T13:37:38;3.40;;;1.40;;
41661;SDS011;27351;45.992;12.666;2022-08-01T13:40:08;2.20;;;1.23;;
41661;SDS011;27351;45.992;12.666;2022-08-01T13:42:34;4.30;;;1.40;;
41661;SDS011;27351;45.992;12.666;2022-08-01T13:45:00;3.63;;;1.20;;
41661;SDS011;27351;45.992;12.666;2022-08-01T13:47:28;2.80;;;1.40;;
41661;SDS011;27351;45.992;12.666;2022-08-01T13:49:54;3.28;;;1.30;;
41661;SDS011;27351;45.992;12.666;2022-08-01T13:52:19;3.40;;;1.50;;
41661;SDS011;27351;45.992;12.666;2022-08-01T13:54:45;2.10;;;1.37;;
41661;SDS011;27351;45.992;12.666;2022-08-01T13:57:11;2.90;;;1.10;;
41661;SDS011;27351;45.992;12.666;2022-08-01T13:59:36;1.97;;;1.20;;
41661;SDS011;27351;45.992;12.666;2022-08-01T14:02:02;2.33;;;1.25;;
41661;SDS011;27351;45.992;12.666;2022-08-01T14:04:27;2.30;;;1.30;;
41661;SDS011;27351;45.992;12.666;2022-08-01T14:06:53;6.93;;;1.25;;
41661;SDS011;27351;45.992;12.666;2022-08-01T14:09:18;3.40;;;1.40;;
41661;SDS011;27351;45.992;12.666;2022-08-01T14:11:45;3.63;;;1.35;;
41661;SDS011;27351;45.992;12.666;2022-08-01T14:14:10;4.07;;;1.35;;
41661;SDS011;27351;45.992;12.666;2022-08-01T14:16:36;3.30;;;1.47;;
41661;SDS011;27351;45.992;12.666;2022-08-01T14:19:03;2.90;;;1.10;;
41661;SDS011;27351;45.992;12.666;2022-08-01T14:21:28;2.65;;;1.55;;
41661;SDS011;27351;45.992;12.666;2022-08-01T14:23:54;4.30;;;1.40;;
41661;SDS011;27351;45.992;12.666;2022-08-01T14:26:19;3.37;;;1.37;;
41661;SDS011;27351;45.992;12.666;2022-08-01T14:28:45;2.30;;;1.20;;
41661;SDS011;27351;45.992;12.666;2022-08-01T14:31:11;2.03;;;1.20;;
41661;SDS011;27351;45.992;12.666;2022-08-01T14:33:36;2.83;;;1.30;;
41661;SDS011;27351;45.992;12.666;2022-08-01T14:36:02;3.37;;;1.13;;
41661;SDS011;27351;45.992;12.666;2022-08-01T14:38:28;2.13;;;1.20;;
41661;SDS011;27351;45.992;12.666;2022-08-01T14:40:54;14.73;;;1.90;;
41661;SDS011;27351;45.992;12.666;2022-08-01T14:43:20;8.20;;;1.60;;
41661;SDS011;27351;45.992;12.666;2022-08-01T14:45:46;5.18;;;1.50;;
41661;SDS011;27351;45.992;12.666;2022-08-01T14:48:15;3.35;;;1.30;;
41661;SDS011;27351;45.992;12.666;2022-08-01T14:50:41;3.58;;;1.25;;
41661;SDS011;27351;45.992;12.666;2022-08-01T14:53:06;8.33;;;1.60;;
41661;SDS011;27351;45.992;12.666;2022-08-01T14:55:32;5.30;;;1.35;;
41661;SDS011;27351;45.992;12.666;2022-08-01T14:57:57;5.37;;;1.40;;
41661;SDS011;27351;45.992;12.666;2022-08-01T15:00:23;2.13;;;1.20;;
41661;SDS011;27351;45.992;12.666;2022-08-01T15:02:48;2.13;;;1.40;;
41661;SDS011;27351;45.992;12.666;2022-08-01T15:05:14;3.97;;;1.30;;
41661;SDS011;27351;45.992;12.666;2022-08-01T15:07:40;7.13;;;1.33;;
41661;SDS011;27351;45.992;12.666;2022-08-01T15:10:05;4.47;;;1.40;;
41661;SDS011;27351;45.992;12.666;2022-08-01T15:12:31;2.70;;;1.45;;